Time;durP1;ratioP1;P1;durP2;ratioP2;P2;SDS_P1;SDS_P2;PMS_P1;PMS_P2;Temp;Humidity;BMP_temperature;BMP_pressure;BME280_temperature;BME280_humidity;BME280_pressure;Samples;Min_cycle;Max_cycle;Signal;HPM_P1;HPM_P2
2021/06/10 00:02:26;;;;;;;8.25;6.82;;;;;;;14.64;47.08;96033.72;5010361;28;20097;-64
2021/06/10 00:04:51;;;;;;;8.30;6.15;;;;;;;14.61;46.82;96024.22;5006926;28;20078;-64
2021/06/10 00:07:17;;;;;;;6.32;5.70;;;;;;;14.65;46.57;96030.84;5008246;28;20106;-64
2021/06/10 00:09:43;;;;;;;7.65;6.78;;;;;;;14.51;48.17;96029.09;5010417;28;20124;-64
2021/06/10 00:12:10;;;;;;;7.90;6.43;;;;;;;14.47;47.42;96028.63;5010022;28;20205;-64
2021/06/10 00:14:35;;;;;;;9.95;8.45;;;;;;;14.20;48.83;96029.22;5010343;28;20082;-64
2021/06/10 00:17:00;;;;;;;12.13;9.05;;;;;;;14.38;48.55;96033.28;5008666;28;20082;-64
2021/06/10 00:19:26;;;;;;;11.15;8.45;;;;;;;14.41;48.76;96032.09;5009792;28;20106;-64
2021/06/10 00:21:51;;;;;;;11.15;9.15;;;;;;;14.40;48.76;96035.78;5014290;28;20073;-64
2021/06/10 00:24:17;;;;;;;11.70;9.77;;;;;;;14.45;48.82;96034.19;5010060;28;20109;-64
2021/06/10 00:26:42;;;;;;;10.73;9.57;;;;;;;14.57;48.33;96037.19;5009837;28;20129;-65
2021/06/10 00:29:08;;;;;;;10.40;9.02;;;;;;;14.61;48.07;96032.25;5009990;28;20086;-64
2021/06/10 00:31:33;;;;;;;9.70;8.65;;;;;;;14.62;47.83;96033.09;5009824;28;20117;-64
2021/06/10 00:33:59;;;;;;;11.38;7.97;;;;;;;14.70;47.65;96031.09;5009902;28;20140;-64
2021/06/10 00:36:24;;;;;;;9.88;8.30;;;;;;;14.67;47.90;96033.31;5005060;28;20114;-64
2021/06/10 00:38:50;;;;;;;11.90;10.25;;;;;;;13.98;49.88;96032.91;5008373;28;20176;-64
2021/06/10 00:41:15;;;;;;;9.98;8.98;;;;;;;14.03;49.78;96031.31;5010021;28;20074;-64
2021/06/10 00:43:41;;;;;;;12.23;9.68;;;;;;;14.04;49.77;96032.16;5008210;28;20451;-64
2021/06/10 00:46:07;;;;;;;11.07;9.88;;;;;;;14.01;49.90;96029.84;5008011;28;20082;-64
2021/06/10 00:48:34;;;;;;;11.30;9.45;;;;;;;14.09;49.36;96027.06;5008574;28;20106;-64
2021/06/10 00:51:00;;;;;;;9.95;8.45;;;;;;;14.29;48.68;96027.25;5009229;28;20577;-64
2021/06/10 00:53:25;;;;;;;8.63;7.47;;;;;;;14.53;47.59;96032.41;5010055;28;20090;-64
2021/06/10 00:55:52;;;;;;;12.15;8.23;;;;;;;14.57;47.67;96036.34;5007978;28;20106;-64
2021/06/10 00:58:18;;;;;;;8.88;6.90;;;;;;;14.54;47.43;96036.72;5009222;28;20642;-64
2021/06/10 01:00:43;;;;;;;10.07;8.00;;;;;;;14.46;47.77;96033.16;5025008;28;20097;-64
2021/06/10 01:03:09;;;;;;;10.18;7.90;;;;;;;14.45;47.60;96030.69;5009046;28;20106;-64
2021/06/10 01:05:34;;;;;;;8.25;7.18;;;;;;;14.46;47.10;96033.16;5009850;28;20078;-64
2021/06/10 01:08:24;;;;;;;10.40;7.13;;;;;;;14.45;47.00;96036.84;5007794;28;20121;-64
2021/06/10 01:11:11;;;;;;;9.98;8.25;;;;;;;14.40;47.44;96036.63;5009516;28;20164;-64
2021/06/10 01:14:03;;;;;;;10.85;9.02;;;;;;;14.30;47.40;96031.59;5009730;28;20132;-64
2021/06/10 01:16:29;;;;;;;12.43;9.38;;;;;;;14.19;47.76;96040.13;5008961;28;20121;-64
2021/06/10 01:18:56;;;;;;;12.63;10.82;;;;;;;14.18;47.80;96036.59;5008814;28;20102;-65
2021/06/10 01:21:21;;;;;;;14.18;9.30;;;;;;;14.18;47.82;96041.97;5009263;28;20226;-64
2021/06/10 01:23:49;;;;;;;14.38;9.80;;;;;;;14.28;47.52;96041.66;4994748;28;20098;-64
2021/06/10 01:26:35;;;;;;;12.38;11.07;;;;;;;14.23;48.02;96035.19;5009789;28;20074;-63
2021/06/10 01:29:01;;;;;;;8.68;7.78;;;;;;;14.22;47.55;96042.44;5008915;28;20114;-64
2021/06/10 01:31:26;;;;;;;10.73;7.22;;;;;;;14.17;47.20;96036.78;5007472;28;20124;-64
2021/06/10 01:33:53;;;;;;;10.30;7.90;;;;;;;14.13;47.53;96038.19;4992072;28;20128;-64
2021/06/10 01:36:25;;;;;;;9.07;7.63;;;;;;;14.09;47.97;96032.41;5006961;28;20567;-64
2021/06/10 01:38:52;;;;;;;9.80;7.38;;;;;;;14.05;48.13;96037.28;5008782;28;20106;-64
2021/06/10 01:41:18;;;;;;;7.75;6.80;;;;;;;14.02;47.79;96036.84;5024229;28;20232;-64
2021/06/10 01:43:43;;;;;;;10.02;7.00;;;;;;;14.04;47.60;96032.97;5007260;28;20209;-64
2021/06/10 01:46:11;;;;;;;7.32;6.60;;;;;;;14.05;47.23;96029.25;4991720;28;20165;-64
2021/06/10 01:48:36;;;;;;;9.67;8.00;;;;;;;14.04;47.53;96034.84;5008753;28;20102;-64
2021/06/10 01:51:02;;;;;;;11.50;8.23;;;;;;;14.02;47.95;96031.50;5007347;28;20534;-64
2021/06/10 01:53:28;;;;;;;12.07;8.75;;;;;;;14.05;47.70;96031.94;5009092;28;20079;-64
2021/06/10 01:55:56;;;;;;;11.40;8.88;;;;;;;14.04;48.42;96026.81;4991313;28;20114;-64
2021/06/10 01:58:21;;;;;;;;;;;;;;;13.99;48.22;96024.69;4988573;28;20127;-64
2021/06/10 02:00:48;;;;;;;10.35;8.93;;;;;;;14.01;48.38;96025.31;5011444;28;20482;-64
2021/06/10 02:03:14;;;;;;;14.52;12.00;;;;;;;13.92;49.10;96021.94;5011062;28;20098;-64
2021/06/10 02:05:40;;;;;;;14.88;12.07;;;;;;;13.90;49.13;96023.97;4995833;28;20749;-65
2021/06/10 02:08:09;;;;;;;11.80;10.13;;;;;;;13.98;48.24;96035.59;5007304;28;20188;-64
2021/06/10 02:10:34;;;;;;;9.90;8.82;;;;;;;14.01;48.69;96030.66;5027404;28;20094;-64
2021/06/10 02:13:00;;;;;;;10.75;9.23;;;;;;;14.08;48.30;96025.41;5012744;28;20086;-64
2021/06/10 02:15:25;;;;;;;14.20;12.27;;;;;;;14.11;48.69;96022.31;5012319;28;20106;-64
2021/06/10 02:17:51;;;;;;;17.08;13.30;;;;;;;13.92;48.94;96019.28;5010962;28;20539;-64
2021/06/10 02:20:18;;;;;;;14.07;12.35;;;;;;;14.03;48.80;96022.44;4994769;28;20121;-64
2021/06/10 02:22:43;;;;;;;10.55;9.43;;;;;;;14.08;48.43;96017.38;5014682;28;20098;-64
2021/06/10 02:25:09;;;;;;;11.25;8.88;;;;;;;14.13;48.20;96008.75;5012504;28;20471;-64
2021/06/10 02:27:34;;;;;;;11.00;9.05;;;;;;;14.18;47.95;96012.50;5011796;28;20437;-64
2021/06/10 02:29:59;;;;;;;11.27;9.48;;;;;;;14.18;47.93;96009.03;5012384;28;20094;-64
2021/06/10 02:32:25;;;;;;;10.73;9.25;;;;;;;14.15;47.85;96012.91;5011097;28;20113;-64
2021/06/10 02:34:50;;;;;;;11.10;9.30;;;;;;;14.11;48.13;96008.94;5005395;28;20110;-64
2021/06/10 02:37:17;;;;;;;11.38;10.18;;;;;;;14.10;48.16;96012.63;5012243;28;20085;-68
2021/06/10 02:39:42;;;;;;;13.25;11.73;;;;;;;14.05;48.56;96013.19;5011749;28;20152;-64
2021/06/10 02:42:12;;;;;;;10.13;9.13;;;;;;;14.08;48.09;96012.81;5011587;28;20520;-64
2021/06/10 02:44:38;;;;;;;13.80;11.45;;;;;;;14.04;48.57;96011.56;5011446;28;20122;-64
2021/06/10 02:47:05;;;;;;;13.55;11.45;;;;;;;14.03;48.32;96011.75;5012017;28;20169;-64
2021/06/10 02:49:31;;;;;;;10.60;9.07;;;;;;;14.04;48.37;96016.09;5016234;28;20138;-64
2021/06/10 02:51:57;;;;;;;11.55;9.43;;;;;;;14.05;48.31;96007.84;5010486;28;20122;-64
2021/06/10 02:54:22;;;;;;;13.68;12.18;;;;;;;14.09;48.21;96000.28;5010318;28;20093;-64
2021/06/10 02:56:48;;;;;;;13.57;11.10;;;;;;;14.10;48.05;96011.84;4996993;28;20156;-65
2021/06/10 02:59:14;;;;;;;12.23;10.68;;;;;;;14.09;48.18;96008.31;5026412;28;20106;-64
2021/06/10 03:01:41;;;;;;;12.25;10.90;;;;;;;14.12;47.94;96002.59;5010404;28;20165;-64
2021/06/10 03:04:08;;;;;;;13.25;11.88;;;;;;;14.16;48.38;96003.84;5012271;28;20113;-64
2021/06/10 03:06:34;;;;;;;14.18;11.45;;;;;;;14.14;48.45;95997.84;4994031;28;20135;-64
2021/06/10 03:09:00;;;;;;;13.23;10.93;;;;;;;14.13;48.28;96001.56;5013099;28;20077;-64
2021/06/10 03:11:25;;;;;;;11.85;10.57;;;;;;;14.17;48.44;96005.50;5009183;28;20110;-63
2021/06/10 03:13:50;;;;;;;14.45;11.00;;;;;;;14.19;48.03;96008.00;5014164;28;20085;-64
2021/06/10 03:16:16;;;;;;;12.40;10.45;;;;;;;14.20;47.93;96002.44;5010779;28;20141;-64
2021/06/10 03:18:41;;;;;;;12.75;10.63;;;;;;;14.17;48.00;96000.16;4994719;28;20098;-64
2021/06/10 03:21:07;;;;;;;12.05;10.75;;;;;;;14.17;48.20;96002.00;5007445;28;20074;-64
2021/06/10 03:23:32;;;;;;;12.27;10.45;;;;;;;14.19;47.97;96000.81;4998703;28;20114;-64
2021/06/10 03:26:01;;;;;;;12.23;9.93;;;;;;;14.15;48.08;96002.22;4998447;28;20098;-64
2021/06/10 03:28:27;;;;;;;11.05;9.80;;;;;;;14.10;48.16;96003.81;5009581;28;20110;-64
2021/06/10 03:30:53;;;;;;;12.25;10.98;;;;;;;14.07;48.29;96003.16;5010634;28;20201;-64
2021/06/10 03:33:18;;;;;;;15.77;12.55;;;;;;;13.81;48.99;96007.16;5011519;28;20483;-64
2021/06/10 03:35:44;;;;;;;14.05;12.48;;;;;;;13.66;50.17;96012.56;5003381;28;20564;-64
2021/06/10 03:38:09;;;;;;;12.48;11.07;;;;;;;13.75;49.57;96004.41;5009070;28;20070;-64
2021/06/10 03:40:35;;;;;;;15.48;11.90;;;;;;;13.77;49.50;95999.72;4994400;28;20102;-64
2021/06/10 03:43:01;;;;;;;11.40;10.18;;;;;;;13.91;48.94;96001.53;5025604;28;20110;-64
2021/06/10 03:45:27;;;;;;;12.25;10.95;;;;;;;14.07;48.70;95997.78;5009733;28;20114;-64
2021/06/10 03:47:52;;;;;;;14.77;12.48;;;;;;;14.12;48.31;95999.91;5009310;28;20188;-64
2021/06/10 03:50:18;;;;;;;14.25;11.88;;;;;;;14.12;48.57;96004.41;5008933;28;20093;-64
2021/06/10 03:52:44;;;;;;;14.15;11.35;;;;;;;14.12;48.71;96001.75;5010661;28;20164;-64
2021/06/10 03:55:10;;;;;;;17.17;13.90;;;;;;;13.99;48.98;96010.47;4992736;28;20113;-64
2021/06/10 03:57:36;;;;;;;17.75;15.18;;;;;;;13.74;50.68;96016.16;5009245;28;20133;-64
2021/06/10 04:00:05;;;;;;;17.00;15.20;;;;;;;13.90;49.80;96015.13;5009885;28;20099;-64
2021/06/10 04:02:31;;;;;;;15.57;12.88;;;;;;;13.87;50.53;96010.94;5010174;28;20114;-64
2021/06/10 04:04:56;;;;;;;11.77;10.52;;;;;;;13.85;49.97;96015.66;5010314;28;20113;-64
2021/06/10 04:07:22;;;;;;;12.05;10.38;;;;;;;14.04;49.16;96016.09;5010214;28;20113;-65
2021/06/10 04:09:47;;;;;;;19.02;15.40;;;;;;;14.14;50.14;96019.28;5009102;28;20077;-64
2021/06/10 04:12:12;;;;;;;14.63;12.13;;;;;;;14.31;48.97;96013.69;5010007;28;20113;-64
2021/06/10 04:14:38;;;;;;;18.52;13.82;;;;;;;14.39;48.61;96013.53;5010164;28;20682;-64
2021/06/10 04:17:03;;;;;;;13.13;11.52;;;;;;;14.49;48.32;96018.56;5010828;28;20098;-64
2021/06/10 04:19:29;;;;;;;13.98;11.20;;;;;;;14.52;48.18;96017.34;5009429;28;20102;-64
2021/06/10 04:21:54;;;;;;;12.35;10.25;;;;;;;14.55;48.09;96019.66;5013171;28;20525;-64
2021/06/10 04:24:20;;;;;;;11.82;10.10;;;;;;;14.62;47.96;96017.00;5009798;28;20117;-64
2021/06/10 04:26:45;;;;;;;14.93;11.25;;;;;;;14.78;47.93;96023.94;5011352;28;21681;-64
2021/06/10 04:29:11;;;;;;;11.05;9.68;;;;;;;14.86;47.29;96015.78;5010321;28;20165;-64
2021/06/10 04:31:36;;;;;;;14.82;13.25;;;;;;;14.61;48.60;96018.84;5009214;28;20126;-64
2021/06/10 04:34:02;;;;;;;14.20;11.43;;;;;;;14.59;48.71;96016.38;5010123;28;20075;-64
2021/06/10 04:36:27;;;;;;;17.00;14.55;;;;;;;14.43;48.40;96016.66;5009690;28;20117;-64
2021/06/10 04:38:53;;;;;;;16.13;11.88;;;;;;;14.51;48.92;96021.06;5002541;28;20762;-64
2021/06/10 04:41:18;;;;;;;16.48;14.45;;;;;;;14.40;49.68;96017.88;5007614;28;20458;-64
2021/06/10 04:43:44;;;;;;;17.08;12.70;;;;;;;14.36;48.84;96024.63;5005673;28;20126;-64
2021/06/10 04:46:09;;;;;;;13.80;11.45;;;;;;;14.64;49.12;96020.31;4998153;28;20090;-64
2021/06/10 04:48:36;;;;;;;12.63;11.32;;;;;;;15.01;47.86;96018.34;5002725;28;20260;-64
2021/06/10 04:51:02;;;;;;;15.80;14.20;;;;;;;15.15;48.72;96021.09;5003921;28;20114;-64
2021/06/10 04:53:28;;;;;;;17.00;14.70;;;;;;;15.28;47.72;96023.03;5002797;28;20093;-64
2021/06/10 04:55:53;;;;;;;14.68;12.25;;;;;;;15.46;47.30;96019.81;5005926;28;20105;-64
2021/06/10 04:58:18;;;;;;;17.23;15.35;;;;;;;15.43;47.92;96023.72;5000309;28;20078;-64
2021/06/10 05:00:44;;;;;;;13.18;11.75;;;;;;;15.68;47.16;96017.06;5005930;28;20094;-64
2021/06/10 05:03:09;;;;;;;22.63;11.30;;;;;;;15.86;46.12;96019.16;5001766;28;20110;-64
2021/06/10 05:05:35;;;;;;;12.77;10.43;;;;;;;16.06;45.93;96018.41;5003390;28;20140;-64
2021/06/10 05:08:01;;;;;;;11.65;9.85;;;;;;;16.21;46.22;96019.03;5001012;28;20102;-64
2021/06/10 05:10:26;;;;;;;12.55;10.15;;;;;;;16.35;46.15;96021.78;5000653;28;20510;-64
2021/06/10 05:12:52;;;;;;;10.27;9.18;;;;;;;16.25;44.50;96014.91;5006281;28;20602;-64
2021/06/10 05:15:17;;;;;;;10.23;8.82;;;;;;;16.31;44.00;96018.63;5002950;28;20105;-64
2021/06/10 05:17:43;;;;;;;12.18;9.30;;;;;;;16.41;43.81;96015.59;5004925;28;20090;-64
2021/06/10 05:20:09;;;;;;;10.25;9.20;;;;;;;16.54;43.50;96019.31;5003192;28;20189;-64
2021/06/10 05:22:34;;;;;;;11.15;9.73;;;;;;;16.70;43.32;96018.91;5002345;28;20105;-64
2021/06/10 05:24:59;;;;;;;11.80;10.10;;;;;;;16.86;42.99;96022.22;4997446;28;20086;-65
2021/06/10 05:27:25;;;;;;;13.07;10.48;;;;;;;16.98;42.87;96015.16;5004148;28;20106;-64
2021/06/10 05:29:50;;;;;;;13.05;11.00;;;;;;;17.15;42.57;96020.94;5005658;28;20078;-64
2021/06/10 05:32:16;;;;;;;11.65;10.43;;;;;;;17.32;42.47;96019.66;5004328;28;20626;-67
2021/06/10 05:34:41;;;;;;;14.80;12.02;;;;;;;17.45;42.34;96016.09;5008457;28;20125;-65
2021/06/10 05:37:07;;;;;;;16.40;12.45;;;;;;;17.57;42.28;96018.97;5006056;28;20086;-64
2021/06/10 05:39:32;;;;;;;18.23;13.45;;;;;;;17.61;42.36;96014.81;5009170;28;20105;-64
2021/06/10 05:41:57;;;;;;;18.35;13.48;;;;;;;17.74;42.79;96019.31;5005838;28;20078;-64
2021/06/10 05:44:23;;;;;;;18.55;13.50;;;;;;;17.91;43.63;96017.78;5006723;28;20114;-65
2021/06/10 05:46:49;;;;;;;14.00;12.48;;;;;;;17.95;43.54;96022.75;5008005;28;20106;-65
2021/06/10 05:49:15;;;;;;;14.75;12.45;;;;;;;18.10;42.62;96025.13;5007674;28;20094;-65
2021/06/10 05:51:41;;;;;;;17.08;13.45;;;;;;;18.08;43.45;96022.66;5008714;28;20122;-65
2021/06/10 05:54:06;;;;;;;14.07;12.18;;;;;;;18.24;42.96;96029.41;5007970;28;20389;-64
2021/06/10 05:56:32;;;;;;;16.75;13.10;;;;;;;18.18;42.76;96025.72;5007656;28;20102;-64
2021/06/10 05:58:57;;;;;;;18.38;13.32;;;;;;;18.24;42.89;96028.56;5006715;28;20110;-64
2021/06/10 06:01:23;;;;;;;17.60;13.32;;;;;;;17.79;44.79;96025.66;5005065;28;20098;-64
2021/06/10 06:03:48;;;;;;;15.50;13.13;;;;;;;17.96;42.72;96024.38;5005084;28;20110;-65
2021/06/10 06:06:17;;;;;;;16.40;14.63;;;;;;;18.02;43.79;96034.31;5007259;28;20090;-64
2021/06/10 06:08:43;;;;;;;18.13;12.90;;;;;;;18.33;43.27;96023.75;5004872;28;20519;-64
2021/06/10 06:11:08;;;;;;;16.48;13.73;;;;;;;17.60;44.02;96037.34;5004910;28;20114;-64
2021/06/10 06:13:54;;;;;;;19.75;13.55;;;;;;;18.16;43.63;96030.47;5005109;28;20078;-64
2021/06/10 06:16:20;;;;;;;16.85;12.35;;;;;;;18.28;43.21;96027.94;5004374;28;20729;-64
2021/06/10 06:18:45;;;;;;;16.35;13.02;;;;;;;18.66;41.87;96031.63;5004822;28;20102;-64
2021/06/10 06:21:11;;;;;;;14.18;12.65;;;;;;;18.95;41.79;96033.88;5004936;28;20175;-64
2021/06/10 06:23:37;;;;;;;15.35;12.57;;;;;;;18.85;40.81;96031.66;5023035;28;20129;-65
2021/06/10 06:26:02;;;;;;;16.35;13.63;;;;;;;18.91;41.38;96030.81;5003995;28;20125;-64
2021/06/10 06:28:28;;;;;;;19.42;13.38;;;;;;;19.11;41.16;96034.34;5004094;28;20102;-64
2021/06/10 06:30:53;;;;;;;16.35;13.10;;;;;;;19.16;40.88;96032.63;5003913;28;20114;-64
2021/06/10 06:33:19;;;;;;;15.93;12.68;;;;;;;19.36;41.16;96036.19;5005030;28;20086;-64
2021/06/10 06:35:45;;;;;;;14.93;13.00;;;;;;;19.36;40.49;96044.28;5003903;28;20459;-64
2021/06/10 06:38:11;;;;;;;15.68;13.45;;;;;;;19.36;39.64;96041.56;5004211;28;20078;-64
2021/06/10 06:40:36;;;;;;;17.15;12.68;;;;;;;19.26;40.54;96044.75;5004472;28;20114;-64
2021/06/10 06:43:02;;;;;;;16.65;13.55;;;;;;;19.33;40.70;96038.28;5003668;28;20110;-64
2021/06/10 06:45:27;;;;;;;17.90;13.25;;;;;;;19.38;40.18;96039.50;4999843;28;20746;-64
2021/06/10 06:47:53;;;;;;;18.17;13.77;;;;;;;19.52;40.15;96045.56;5004072;28;20463;-64
2021/06/10 06:50:18;;;;;;;17.40;13.43;;;;;;;19.05;41.21;96046.84;5005014;28;20145;-64
2021/06/10 06:52:44;;;;;;;22.98;14.40;;;;;;;19.04;40.85;96054.09;5002764;28;20194;-64
2021/06/10 06:55:10;;;;;;;18.15;12.82;;;;;;;19.32;39.88;96054.72;5004842;28;20555;-64
2021/06/10 06:57:36;;;;;;;14.73;12.50;;;;;;;18.92;41.13;96045.09;5003199;28;20086;-64
2021/06/10 07:00:02;;;;;;;17.85;14.95;;;;;;;18.50;40.38;96045.63;5003681;28;20176;-64
2021/06/10 07:02:27;;;;;;;18.42;14.93;;;;;;;18.63;41.41;96056.31;4999188;28;20470;-64
2021/06/10 07:04:54;;;;;;;17.90;13.38;;;;;;;19.20;40.71;96054.56;5004624;28;20090;-64
2021/06/10 07:07:19;;;;;;;20.15;14.13;;;;;;;19.78;39.96;96054.41;5002353;28;20110;-65
2021/06/10 07:09:45;;;;;;;15.48;13.80;;;;;;;19.96;39.95;96053.59;5004557;28;20078;-64
2021/06/10 07:12:10;;;;;;;15.10;12.07;;;;;;;19.92;39.24;96060.47;5003772;28;20173;-65
2021/06/10 07:14:36;;;;;;;15.15;13.55;;;;;;;20.12;38.22;96070.22;5002542;28;20085;-65
2021/06/10 07:17:02;;;;;;;15.43;13.57;;;;;;;20.29;38.94;96071.22;5004335;28;20559;-65
2021/06/10 07:19:27;;;;;;;17.67;13.48;;;;;;;20.61;37.86;96070.13;5003772;28;20176;-65
2021/06/10 07:21:52;;;;;;;16.42;13.23;;;;;;;20.42;38.23;96070.22;5004249;28;20086;-65
2021/06/10 07:24:18;;;;;;;17.25;13.52;;;;;;;20.46;38.62;96073.25;5003209;28;20708;-64
2021/06/10 07:26:44;;;;;;;17.60;13.57;;;;;;;20.00;40.49;96083.66;5002166;28;20563;-65
2021/06/10 07:29:14;;;;;;;17.85;13.52;;;;;;;20.38;39.49;96076.28;5004510;28;20325;-64
2021/06/10 07:31:40;;;;;;;16.45;14.23;;;;;;;20.68;37.74;96072.75;5002993;28;20519;-65
2021/06/10 07:34:06;;;;;;;14.13;12.07;;;;;;;20.57;39.39;96071.66;5001486;28;20165;-64
2021/06/10 07:36:32;;;;;;;17.27;14.50;;;;;;;20.73;38.02;96070.19;5000800;28;20114;-64
2021/06/10 07:38:58;;;;;;;15.00;11.85;;;;;;;20.58;37.05;96065.19;4994105;28;20176;-64
2021/06/10 07:41:23;;;;;;;20.08;13.82;;;;;;;20.41;37.55;96068.56;5001172;28;20082;-65
2021/06/10 07:43:48;;;;;;;16.08;12.70;;;;;;;20.55;38.38;96085.41;5000751;28;20126;-65
2021/06/10 07:46:14;;;;;;;16.85;13.13;;;;;;;20.90;37.77;96088.47;5003168;28;20078;-64
2021/06/10 07:48:40;;;;;;;17.77;13.48;;;;;;;20.53;38.28;96082.09;5014993;28;20114;-65
2021/06/10 07:51:06;;;;;;;17.45;13.77;;;;;;;20.42;38.18;96080.19;5006698;28;20203;-65
2021/06/10 07:53:36;;;;;;;14.53;12.20;;;;;;;21.48;37.14;96081.41;5007292;28;20082;-65
2021/06/10 07:56:04;;;;;;;12.93;10.15;;;;;;;21.68;36.59;96084.81;4989330;28;20136;-65
2021/06/10 07:58:29;;;;;;;18.17;12.48;;;;;;;21.99;35.61;96086.28;5004602;28;20113;-65
2021/06/10 08:00:54;;;;;;;17.33;14.25;;;;;;;22.02;34.88;96090.41;5006304;28;20211;-64
2021/06/10 08:03:20;;;;;;;14.98;12.80;;;;;;;22.13;34.85;96083.31;5005330;28;20501;-68
2021/06/10 08:05:46;;;;;;;17.25;12.32;;;;;;;22.07;35.24;96085.09;5002192;28;20157;-65
2021/06/10 08:08:13;;;;;;;14.80;10.95;;;;;;;22.17;35.44;96089.91;4998547;28;20142;-65
2021/06/10 08:10:39;;;;;;;17.05;13.40;;;;;;;21.94;35.13;96085.38;5005779;28;20964;-65
2021/06/10 08:13:04;;;;;;;18.92;12.05;;;;;;;22.44;34.80;96091.19;5005806;28;20177;-64
2021/06/10 08:15:30;;;;;;;14.00;12.20;;;;;;;22.55;32.81;96089.50;5004294;28;20567;-64
2021/06/10 08:17:55;;;;;;;14.68;12.05;;;;;;;22.53;33.15;96085.16;5004624;28;20503;-64
2021/06/10 08:20:21;;;;;;;19.95;13.88;;;;;;;21.76;33.95;96096.09;5005426;28;20094;-70
2021/06/10 08:22:46;;;;;;;14.10;11.50;;;;;;;21.78;33.45;96079.59;5009067;28;20102;-69
2021/06/10 08:25:12;;;;;;;13.18;10.90;;;;;;;21.78;33.98;96082.31;4974285;28;20084;-73
2021/06/10 08:27:38;;;;;;;15.10;11.27;;;;;;;22.36;32.59;96085.09;5003196;28;20094;-72
2021/06/10 08:30:04;;;;;;;13.05;9.73;;;;;;;22.79;32.91;96085.59;5004886;28;20117;-73
2021/06/10 08:32:30;;;;;;;14.60;11.80;;;;;;;23.17;31.63;96077.81;5003495;28;20586;-71
2021/06/10 08:34:55;;;;;;;14.60;12.43;;;;;;;22.48;31.65;96082.34;5019824;28;20118;-72
2021/06/10 08:37:21;;;;;;;12.88;11.15;;;;;;;22.64;32.28;96080.72;5002513;28;20086;-72
2021/06/10 08:39:46;;;;;;;13.93;11.52;;;;;;;22.93;31.42;96082.56;5017297;28;20110;-72
2021/06/10 08:42:12;;;;;;;14.40;10.32;;;;;;;23.30;31.40;96082.06;5000597;28;20082;-71
2021/06/10 08:44:37;;;;;;;12.32;10.93;;;;;;;23.58;30.04;96081.38;4998338;28;20579;-72
2021/06/10 08:47:05;;;;;;;16.48;11.65;;;;;;;22.97;32.57;96091.03;4983764;28;20522;-72
2021/06/10 08:49:31;;;;;;;16.75;12.75;;;;;;;22.76;32.12;96088.81;5001456;28;20432;-71
2021/06/10 08:51:56;;;;;;;14.35;12.85;;;;;;;22.79;32.09;96082.91;4998711;28;20135;-71
2021/06/10 08:54:22;;;;;;;17.95;14.43;;;;;;;23.15;29.73;96087.28;5005714;28;20086;-71
2021/06/10 08:56:47;;;;;;;19.13;15.50;;;;;;;23.41;30.48;96082.19;5007049;28;20074;-71
2021/06/10 08:59:13;;;;;;;19.40;14.70;;;;;;;23.56;28.84;96084.34;5021542;28;20106;-71
2021/06/10 09:01:38;;;;;;;16.30;14.07;;;;;;;23.94;29.44;96087.28;5009461;28;20101;-72
2021/06/10 09:04:04;;;;;;;15.25;12.65;;;;;;;23.34;31.46;96085.09;5023606;28;20168;-72
2021/06/10 09:06:50;;;;;;;15.68;13.30;;;;;;;23.59;30.00;96083.81;5007022;28;20148;-72
2021/06/10 09:09:33;;;;;;;14.57;12.75;;;;;;;23.93;28.83;96078.28;5023505;28;20085;-71
2021/06/10 09:12:04;;;;;;;16.10;13.85;;;;;;;23.92;28.35;96081.25;5008490;28;20158;-72
2021/06/10 09:14:30;;;;;;;15.70;13.05;;;;;;;23.35;30.15;96084.03;5002389;28;20090;-71
2021/06/10 09:16:55;;;;;;;14.45;12.18;;;;;;;23.41;30.66;96084.91;5007390;28;20132;-71
2021/06/10 09:19:21;;;;;;;16.98;13.75;;;;;;;22.91;29.58;96093.66;5009888;28;20101;-70
2021/06/10 09:21:59;;;;;;;12.65;10.32;;;;;;;23.44;28.95;96095.28;5007476;28;20077;-70
2021/06/10 09:24:28;;;;;;;16.00;11.70;;;;;;;23.72;29.45;96095.41;5008062;28;20106;-70
2021/06/10 09:27:13;;;;;;;16.27;12.63;;;;;;;23.67;28.74;96091.56;5006772;28;20763;-70
2021/06/10 09:29:51;;;;;;;19.83;13.05;;;;;;;22.55;31.80;96087.63;5022734;28;20495;-70
2021/06/10 09:32:23;;;;;;;35.88;13.88;;;;;;;21.93;32.65;96098.09;5001387;28;20121;-69
2021/06/10 09:34:56;;;;;;;17.00;12.43;;;;;;;22.27;32.60;96102.81;4986699;28;20110;-69
2021/06/10 09:37:35;;;;;;;19.70;12.70;;;;;;;22.86;30.50;96093.59;5010424;28;20078;-69
2021/06/10 09:40:31;;;;;;;16.52;13.20;;;;;;;23.29;29.54;96090.47;5014177;28;20612;-70
2021/06/10 09:42:57;;;;;;;14.57;11.90;;;;;;;23.29;30.97;96099.41;4980332;28;20471;-70
2021/06/10 09:45:26;;;;;;;14.02;10.90;;;;;;;23.80;30.73;96089.56;5001130;28;20130;-71
2021/06/10 09:47:53;;;;;;;15.63;11.77;;;;;;;24.18;29.83;96095.16;4983042;28;20571;-71
2021/06/10 09:50:30;;;;;;;15.13;12.75;;;;;;;23.30;30.21;96097.53;5016679;28;21946;-70
2021/06/10 09:53:09;;;;;;;13.20;10.32;;;;;;;23.72;29.82;96096.22;4981472;28;20093;-71
2021/06/10 09:55:41;;;;;;;21.67;11.43;;;;;;;23.62;27.63;96088.75;4996768;28;20105;-70
2021/06/10 09:58:13;;;;;;;12.93;9.68;;;;;;;23.67;27.59;96101.59;4994383;28;20148;-71
2021/06/10 10:00:50;;;;;;;13.68;10.95;;;;;;;23.47;27.20;96091.25;4999199;28;20137;-71
2021/06/10 10:03:24;;;;;;;;;;;;;;;22.95;29.22;96104.03;5005281;28;20102;-69
2021/06/10 10:06:02;;;;;;;12.57;9.68;;;;;;;22.52;28.61;96104.34;5000869;28;20392;-70
2021/06/10 10:08:28;;;;;;;11.68;9.30;;;;;;;23.38;27.26;96094.41;4999348;28;20110;-71
2021/06/10 10:10:57;;;;;;;11.17;8.93;;;;;;;23.56;26.70;96093.28;5001003;28;20213;-71
2021/06/10 10:13:27;;;;;;;13.20;10.35;;;;;;;23.01;30.03;96103.06;5000588;28;20074;-71
2021/06/10 10:15:53;;;;;;;15.07;11.20;;;;;;;21.73;33.89;96099.31;5000591;28;20102;-70
2021/06/10 10:18:18;;;;;;;13.45;10.45;;;;;;;20.99;35.00;96097.88;4997554;28;20078;-71
2021/06/10 10:20:44;;;;;;;10.77;9.10;;;;;;;20.73;35.54;96094.53;5003300;28;20098;-70
2021/06/10 10:23:09;;;;;;;11.40;8.60;;;;;;;21.38;33.56;96102.84;5003501;28;20110;-70
2021/06/10 10:25:35;;;;;;;13.40;10.32;;;;;;;21.69;31.23;96100.00;4972994;28;20093;-71
2021/06/10 10:28:00;;;;;;;10.70;8.43;;;;;;;22.09;32.00;96096.50;5002720;28;20192;-70
2021/06/10 10:30:26;;;;;;;11.48;7.93;;;;;;;23.00;30.20;96090.53;4983367;28;20450;-70
2021/06/10 10:32:51;;;;;;;9.32;7.75;;;;;;;23.79;28.67;96094.16;5003567;28;20554;-70
2021/06/10 10:35:19;;;;;;;11.52;7.65;;;;;;;22.55;27.62;96097.66;5000181;28;20110;-70
2021/06/10 10:37:45;;;;;;;12.27;8.23;;;;;;;22.61;28.02;96102.09;5002309;28;20089;-70
2021/06/10 10:40:28;;;;;;;10.80;8.25;;;;;;;22.83;28.21;96094.06;5000173;28;20538;-70
2021/06/10 10:42:55;;;;;;;8.93;6.95;;;;;;;23.20;28.65;96086.50;5003498;28;20181;-70
2021/06/10 10:45:24;;;;;;;9.18;7.05;;;;;;;22.19;28.63;96093.19;4986338;28;20217;-71
2021/06/10 10:48:00;;;;;;;8.93;6.63;;;;;;;21.94;30.04;96098.91;5000313;28;20209;-70
2021/06/10 10:50:45;;;;;;;9.27;6.13;;;;;;;22.39;26.57;96084.63;5000218;28;20307;-70
2021/06/10 10:53:19;;;;;;;5.05;4.55;;;;;;;22.60;23.74;96073.34;4998895;28;20434;-71
2021/06/10 10:55:45;;;;;;;7.40;6.20;;;;;;;23.24;25.77;96063.22;4986149;28;20106;-71
2021/06/10 10:58:20;;;;;;;8.00;6.07;;;;;;;22.77;27.28;96074.16;4988093;28;20078;-71
2021/06/10 11:00:53;;;;;;;9.55;7.30;;;;;;;21.67;30.06;96081.28;5001966;28;20114;-70
2021/06/10 11:03:39;;;;;;;8.90;6.68;;;;;;;21.31;29.36;96077.81;5002273;28;20110;-70
2021/06/10 11:06:25;;;;;;;10.98;8.32;;;;;;;22.23;27.84;96074.56;4982583;28;20539;-71
2021/06/10 11:09:14;;;;;;;8.07;5.75;;;;;;;21.20;32.09;96073.97;4996800;28;20575;-71
2021/06/10 11:11:55;;;;;;;9.02;6.72;;;;;;;21.00;31.33;96070.56;4999315;28;20110;-71
2021/06/10 11:14:43;;;;;;;10.30;7.80;;;;;;;20.28;33.46;96064.16;5017010;28;20109;-71
2021/06/10 11:17:25;;;;;;;10.88;7.90;;;;;;;20.55;32.73;96062.94;4999040;28;20426;-71
2021/06/10 11:20:19;;;;;;;11.57;7.35;;;;;;;21.03;31.38;96066.56;4999682;28;20110;-71
2021/06/10 11:22:49;;;;;;;9.93;7.40;;;;;;;20.20;32.74;96068.00;5002622;28;20841;-71
2021/06/10 11:25:26;;;;;;;9.25;7.30;;;;;;;21.22;31.60;96066.47;4999659;28;20459;-71